sensor_id;sensor_type;location;lat;lon;timestamp;temperature;humidity
63094;DHT22;49183;51.380;0.098;2022-08-18T00:00:47;15.00;83.80
63094;DHT22;49183;51.380;0.098;2022-08-18T00:03:49;15.00;83.80
63094;DHT22;49183;51.380;0.098;2022-08-18T00:07:17;15.00;83.80
63094;DHT22;49183;51.380;0.098;2022-08-18T00:10:18;15.00;83.90
63094;DHT22;49183;51.380;0.098;2022-08-18T00:13:19;14.90;83.90
63094;DHT22;49183;51.380;0.098;2022-08-18T00:16:13;15.00;83.90
63094;DHT22;49183;51.380;0.098;2022-08-18T00:19:07;14.90;83.90
63094;DHT22;49183;51.380;0.098;2022-08-18T00:22:28;14.90;84.00
63094;DHT22;49183;51.380;0.098;2022-08-18T00:25:29;14.90;84.10
63094;DHT22;49183;51.380;0.098;2022-08-18T00:28:30;14.90;84.00
63094;DHT22;49183;51.380;0.098;2022-08-18T00:31:31;14.90;84.10
63094;DHT22;49183;51.380;0.098;2022-08-18T00:34:32;14.90;84.10
63094;DHT22;49183;51.380;0.098;2022-08-18T00:37:33;14.90;84.20
63094;DHT22;49183;51.380;0.098;2022-08-18T00:40:40;14.90;84.20
63094;DHT22;49183;51.380;0.098;2022-08-18T00:43:43;14.90;84.20
63094;DHT22;49183;51.380;0.098;2022-08-18T00:46:45;14.90;84.30
63094;DHT22;49183;51.380;0.098;2022-08-18T00:49:47;14.90;84.30
63094;DHT22;49183;51.380;0.098;2022-08-18T00:52:56;14.90;84.50
63094;DHT22;49183;51.380;0.098;2022-08-18T00:56:04;14.80;84.60
63094;DHT22;49183;51.380;0.098;2022-08-18T00:59:32;14.90;84.50
63094;DHT22;49183;51.380;0.098;2022-08-18T01:02:35;14.90;84.50
63094;DHT22;49183;51.380;0.098;2022-08-18T01:05:42;14.90;84.50
63094;DHT22;49183;51.380;0.098;2022-08-18T01:08:44;14.90;84.40
63094;DHT22;49183;51.380;0.098;2022-08-18T01:11:45;14.90;84.30
63094;DHT22;49183;51.380;0.098;2022-08-18T01:14:46;14.90;84.30
63094;DHT22;49183;51.380;0.098;2022-08-18T01:17:47;14.90;84.30
63094;DHT22;49183;51.380;0.098;2022-08-18T01:21:19;14.90;84.20
63094;DHT22;49183;51.380;0.098;2022-08-18T01:24:42;14.90;84.10
63094;DHT22;49183;51.380;0.098;2022-08-18T01:28:04;15.00;84.00
63094;DHT22;49183;51.380;0.098;2022-08-18T01:31:06;15.00;84.00
63094;DHT22;49183;51.380;0.098;2022-08-18T01:34:09;15.00;84.00
63094;DHT22;49183;51.380;0.098;2022-08-18T01:37:10;15.00;84.00
63094;DHT22;49183;51.380;0.098;2022-08-18T01:40:14;15.00;83.90
63094;DHT22;49183;51.380;0.098;2022-08-18T01:43:35;15.00;84.00
63094;DHT22;49183;51.380;0.098;2022-08-18T01:46:40;15.00;83.90
63094;DHT22;49183;51.380;0.098;2022-08-18T01:49:41;15.00;84.00
63094;DHT22;49183;51.380;0.098;2022-08-18T01:52:42;15.00;84.00
63094;DHT22;49183;51.380;0.098;2022-08-18T01:55:43;15.00;84.00
63094;DHT22;49183;51.380;0.098;2022-08-18T01:58:44;15.00;84.10
63094;DHT22;49183;51.380;0.098;2022-08-18T02:01:47;15.00;84.10
63094;DHT22;49183;51.380;0.098;2022-08-18T02:04:49;15.00;84.10
63094;DHT22;49183;51.380;0.098;2022-08-18T02:07:51;15.00;84.10
63094;DHT22;49183;51.380;0.098;2022-08-18T02:10:52;15.00;84.20
63094;DHT22;49183;51.380;0.098;2022-08-18T02:13:53;15.00;84.20
63094;DHT22;49183;51.380;0.098;2022-08-18T02:16:58;15.00;84.20
63094;DHT22;49183;51.380;0.098;2022-08-18T02:20:00;14.90;84.30
63094;DHT22;49183;51.380;0.098;2022-08-18T02:23:01;14.90;84.30
63094;DHT22;49183;51.380;0.098;2022-08-18T02:26:05;14.90;84.30
63094;DHT22;49183;51.380;0.098;2022-08-18T02:28:59;14.90;84.30
63094;DHT22;49183;51.380;0.098;2022-08-18T02:32:00;15.00;84.40
63094;DHT22;49183;51.380;0.098;2022-08-18T02:35:02;14.90;84.40
63094;DHT22;49183;51.380;0.098;2022-08-18T02:38:06;14.90;84.50
63094;DHT22;49183;51.380;0.098;2022-08-18T02:41:12;14.90;84.50
63094;DHT22;49183;51.380;0.098;2022-08-18T02:44:15;14.80;84.60
63094;DHT22;49183;51.380;0.098;2022-08-18T02:47:20;14.90;84.60
63094;DHT22;49183;51.380;0.098;2022-08-18T02:50:20;14.80;84.70
63094;DHT22;49183;51.380;0.098;2022-08-18T02:53:21;14.80;84.80
63094;DHT22;49183;51.380;0.098;2022-08-18T02:56:27;14.80;84.90
63094;DHT22;49183;51.380;0.098;2022-08-18T02:59:28;14.80;84.90
63094;DHT22;49183;51.380;0.098;2022-08-18T03:02:36;14.80;85.00
63094;DHT22;49183;51.380;0.098;2022-08-18T03:05:37;14.80;85.00
63094;DHT22;49183;51.380;0.098;2022-08-18T03:08:38;14.80;85.10
63094;DHT22;49183;51.380;0.098;2022-08-18T03:11:44;14.80;85.10
63094;DHT22;49183;51.380;0.098;2022-08-18T03:14:46;14.80;85.20
63094;DHT22;49183;51.380;0.098;2022-08-18T03:17:47;14.80;85.20
63094;DHT22;49183;51.380;0.098;2022-08-18T03:20:49;14.80;85.30
63094;DHT22;49183;51.380;0.098;2022-08-18T03:23:56;14.80;85.30
63094;DHT22;49183;51.380;0.098;2022-08-18T03:26:57;14.80;85.30
63094;DHT22;49183;51.380;0.098;2022-08-18T03:29:58;14.80;85.30
63094;DHT22;49183;51.380;0.098;2022-08-18T03:32:59;14.90;85.30
63094;DHT22;49183;51.380;0.098;2022-08-18T03:36:09;14.90;85.30
63094;DHT22;49183;51.380;0.098;2022-08-18T03:39:12;14.90;85.40
63094;DHT22;49183;51.380;0.098;2022-08-18T03:42:13;14.90;85.30
63094;DHT22;49183;51.380;0.098;2022-08-18T03:45:14;14.90;85.30
63094;DHT22;49183;51.380;0.098;2022-08-18T03:48:17;15.00;85.30
63094;DHT22;49183;51.380;0.098;2022-08-18T03:51:22;15.00;85.30
63094;DHT22;49183;51.380;0.098;2022-08-18T03:54:24;15.00;85.30
63094;DHT22;49183;51.380;0.098;2022-08-18T03:57:26;14.90;85.30
63094;DHT22;49183;51.380;0.098;2022-08-18T04:00:31;15.00;85.40
63094;DHT22;49183;51.380;0.098;2022-08-18T04:03:32;15.00;85.40
63094;DHT22;49183;51.380;0.098;2022-08-18T04:06:37;15.00;85.40
63094;DHT22;49183;51.380;0.098;2022-08-18T04:09:38;15.00;85.50
63094;DHT22;49183;51.380;0.098;2022-08-18T04:12:40;15.00;85.50
63094;DHT22;49183;51.380;0.098;2022-08-18T04:15:41;15.00;85.50
63094;DHT22;49183;51.380;0.098;2022-08-18T04:18:42;15.00;85.60
63094;DHT22;49183;51.380;0.098;2022-08-18T04:21:44;15.00;85.60
63094;DHT22;49183;51.380;0.098;2022-08-18T04:24:46;15.00;85.60
63094;DHT22;49183;51.380;0.098;2022-08-18T04:27:47;15.00;85.70
63094;DHT22;49183;51.380;0.098;2022-08-18T04:30:51;15.00;85.70
63094;DHT22;49183;51.380;0.098;2022-08-18T04:33:58;15.00;85.70
63094;DHT22;49183;51.380;0.098;2022-08-18T04:36:59;15.10;85.80
63094;DHT22;49183;51.380;0.098;2022-08-18T04:39:54;15.10;85.80
63094;DHT22;49183;51.380;0.098;2022-08-18T04:42:55;15.00;85.80
63094;DHT22;49183;51.380;0.098;2022-08-18T04:45:56;15.00;85.80
63094;DHT22;49183;51.380;0.098;2022-08-18T04:48:57;15.00;85.80
63094;DHT22;49183;51.380;0.098;2022-08-18T04:51:58;15.10;85.90
63094;DHT22;49183;51.380;0.098;2022-08-18T04:55:27;15.00;85.90
63094;DHT22;49183;51.380;0.098;2022-08-18T04:58:28;15.10;85.90
63094;DHT22;49183;51.380;0.098;2022-08-18T05:01:33;15.10;86.00
63094;DHT22;49183;51.380;0.098;2022-08-18T05:04:39;15.10;86.10
63094;DHT22;49183;51.380;0.098;2022-08-18T05:07:45;15.00;86.20
63094;DHT22;49183;51.380;0.098;2022-08-18T05:10:47;15.10;86.30
63094;DHT22;49183;51.380;0.098;2022-08-18T05:13:51;15.00;86.40
63094;DHT22;49183;51.380;0.098;2022-08-18T05:16:51;15.10;86.50
63094;DHT22;49183;51.380;0.098;2022-08-18T05:19:52;15.00;86.50
63094;DHT22;49183;51.380;0.098;2022-08-18T05:22:53;15.00;86.60
63094;DHT22;49183;51.380;0.098;2022-08-18T05:25:59;15.00;86.60
63094;DHT22;49183;51.380;0.098;2022-08-18T05:29:01;15.10;86.70
63094;DHT22;49183;51.380;0.098;2022-08-18T05:32:05;15.10;86.70
63094;DHT22;49183;51.380;0.098;2022-08-18T05:35:33;15.10;86.80
63094;DHT22;49183;51.380;0.098;2022-08-18T05:42:15;15.10;86.90
63094;DHT22;49183;51.380;0.098;2022-08-18T05:45:19;15.10;86.80
63094;DHT22;49183;51.380;0.098;2022-08-18T05:48:20;15.10;86.80
63094;DHT22;49183;51.380;0.098;2022-08-18T05:51:33;15.10;86.80
63094;DHT22;49183;51.380;0.098;2022-08-18T05:54:46;15.20;86.80
63094;DHT22;49183;51.380;0.098;2022-08-18T05:58:17;15.20;86.80
63094;DHT22;49183;51.380;0.098;2022-08-18T06:04:42;15.30;86.80
63094;DHT22;49183;51.380;0.098;2022-08-18T06:07:50;15.30;86.80
63094;DHT22;49183;51.380;0.098;2022-08-18T06:10:52;15.30;86.80
63094;DHT22;49183;51.380;0.098;2022-08-18T06:14:08;15.30;86.80
63094;DHT22;49183;51.380;0.098;2022-08-18T06:27:22;15.40;86.70
63094;DHT22;49183;51.380;0.098;2022-08-18T06:34:02;15.40;86.70
63094;DHT22;49183;51.380;0.098;2022-08-18T06:37:34;15.50;86.60
63094;DHT22;49183;51.380;0.098;2022-08-18T06:41:17;15.50;86.70
63094;DHT22;49183;51.380;0.098;2022-08-18T06:47:53;15.60;86.60
63094;DHT22;49183;51.380;0.098;2022-08-18T06:51:04;15.60;86.70
63094;DHT22;49183;51.380;0.098;2022-08-18T06:54:27;15.60;86.70
63094;DHT22;49183;51.380;0.098;2022-08-18T06:57:38;15.70;86.80
63094;DHT22;49183;51.380;0.098;2022-08-18T07:00:55;15.70;86.80
63094;DHT22;49183;51.380;0.098;2022-08-18T07:04:01;15.80;86.80
63094;DHT22;49183;51.380;0.098;2022-08-18T07:10:36;15.80;86.70
63094;DHT22;49183;51.380;0.098;2022-08-18T07:13:40;16.00;86.70
63094;DHT22;49183;51.380;0.098;2022-08-18T07:17:07;16.10;86.50
63094;DHT22;49183;51.380;0.098;2022-08-18T07:20:28;16.30;86.50
63094;DHT22;49183;51.380;0.098;2022-08-18T07:23:34;16.40;86.20
63094;DHT22;49183;51.380;0.098;2022-08-18T07:30:11;16.60;85.80
63094;DHT22;49183;51.380;0.098;2022-08-18T07:33:20;16.70;85.60
63094;DHT22;49183;51.380;0.098;2022-08-18T07:36:26;16.80;85.60
63094;DHT22;49183;51.380;0.098;2022-08-18T07:43:16;17.10;84.90
63094;DHT22;49183;51.380;0.098;2022-08-18T07:46:26;17.30;84.70
63094;DHT22;49183;51.380;0.098;2022-08-18T07:49:35;17.30;84.40
63094;DHT22;49183;51.380;0.098;2022-08-18T07:53:31;17.50;84.20
63094;DHT22;49183;51.380;0.098;2022-08-18T07:56:56;17.60;83.90
63094;DHT22;49183;51.380;0.098;2022-08-18T08:04:01;17.70;83.60
63094;DHT22;49183;51.380;0.098;2022-08-18T08:07:22;17.70;83.50
63094;DHT22;49183;51.380;0.098;2022-08-18T08:13:56;17.80;83.30
63094;DHT22;49183;51.380;0.098;2022-08-18T08:17:29;17.90;83.20
63094;DHT22;49183;51.380;0.098;2022-08-18T08:20:51;18.00;82.90
63094;DHT22;49183;51.380;0.098;2022-08-18T08:24:05;18.10;82.60
63094;DHT22;49183;51.380;0.098;2022-08-18T08:34:26;18.00;81.90
63094;DHT22;49183;51.380;0.098;2022-08-18T08:37:37;18.00;82.00
63094;DHT22;49183;51.380;0.098;2022-08-18T08:40:58;18.00;82.00
63094;DHT22;49183;51.380;0.098;2022-08-18T08:44:19;18.00;81.90
63094;DHT22;49183;51.380;0.098;2022-08-18T08:47:59;18.30;81.60
63094;DHT22;49183;51.380;0.098;2022-08-18T08:57:49;19.00;79.80
63094;DHT22;49183;51.380;0.098;2022-08-18T09:00:52;19.20;79.40
63094;DHT22;49183;51.380;0.098;2022-08-18T09:04:09;19.40;79.00
63094;DHT22;49183;51.380;0.098;2022-08-18T09:21:58;20.30;75.60
63094;DHT22;49183;51.380;0.098;2022-08-18T09:25:00;20.50;74.90
63094;DHT22;49183;51.380;0.098;2022-08-18T09:28:17;20.60;74.70
63094;DHT22;49183;51.380;0.098;2022-08-18T09:31:18;20.80;74.70
63094;DHT22;49183;51.380;0.098;2022-08-18T09:34:44;21.00;73.80
63094;DHT22;49183;51.380;0.098;2022-08-18T09:38:15;21.10;74.00
63094;DHT22;49183;51.380;0.098;2022-08-18T09:41:46;21.30;73.00
63094;DHT22;49183;51.380;0.098;2022-08-18T09:54:16;21.10;71.40
63094;DHT22;49183;51.380;0.098;2022-08-18T09:57:22;21.10;72.10
63094;DHT22;49183;51.380;0.098;2022-08-18T10:00:30;21.10;72.20
63094;DHT22;49183;51.380;0.098;2022-08-18T10:03:31;21.30;72.00
63094;DHT22;49183;51.380;0.098;2022-08-18T10:06:36;21.40;71.70
63094;DHT22;49183;51.380;0.098;2022-08-18T10:13:28;22.10;70.30
63094;DHT22;49183;51.380;0.098;2022-08-18T10:20:56;22.30;69.10
63094;DHT22;49183;51.380;0.098;2022-08-18T10:24:13;22.60;68.70
63094;DHT22;49183;51.380;0.098;2022-08-18T10:31:02;22.90;66.00
63094;DHT22;49183;51.380;0.098;2022-08-18T10:34:08;22.80;66.40
63094;DHT22;49183;51.380;0.098;2022-08-18T10:40:21;22.80;66.70
63094;DHT22;49183;51.380;0.098;2022-08-18T10:46:42;22.70;66.20
63094;DHT22;49183;51.380;0.098;2022-08-18T10:49:50;22.40;66.10
63094;DHT22;49183;51.380;0.098;2022-08-18T10:56:42;21.90;67.10
63094;DHT22;49183;51.380;0.098;2022-08-18T11:00:07;21.90;67.20
63094;DHT22;49183;51.380;0.098;2022-08-18T11:03:29;21.80;67.10
63094;DHT22;49183;51.380;0.098;2022-08-18T11:06:43;21.60;67.40
63094;DHT22;49183;51.380;0.098;2022-08-18T11:09:49;21.40;67.70
63094;DHT22;49183;51.380;0.098;2022-08-18T11:16:54;21.00;67.80
63094;DHT22;49183;51.380;0.098;2022-08-18T11:19:59;20.80;68.20
63094;DHT22;49183;51.380;0.098;2022-08-18T11:23:03;20.70;68.70
63094;DHT22;49183;51.380;0.098;2022-08-18T11:26:14;20.80;68.90
63094;DHT22;49183;51.380;0.098;2022-08-18T11:29:26;20.90;68.80
63094;DHT22;49183;51.380;0.098;2022-08-18T11:32:37;21.10;68.50
63094;DHT22;49183;51.380;0.098;2022-08-18T11:35:52;21.20;68.20
63094;DHT22;49183;51.380;0.098;2022-08-18T11:38:55;21.20;68.00
63094;DHT22;49183;51.380;0.098;2022-08-18T11:41:57;21.10;68.30
63094;DHT22;49183;51.380;0.098;2022-08-18T11:45:21;21.00;68.70
63094;DHT22;49183;51.380;0.098;2022-08-18T11:51:58;20.80;69.20
63094;DHT22;49183;51.380;0.098;2022-08-18T11:55:03;20.50;70.20
63094;DHT22;49183;51.380;0.098;2022-08-18T11:58:10;20.30;71.60
63094;DHT22;49183;51.380;0.098;2022-08-18T12:04:50;19.90;75.00
63094;DHT22;49183;51.380;0.098;2022-08-18T12:07:56;20.20;75.40
63094;DHT22;49183;51.380;0.098;2022-08-18T12:11:19;20.60;75.20
63094;DHT22;49183;51.380;0.098;2022-08-18T12:14:21;21.00;74.00
63094;DHT22;49183;51.380;0.098;2022-08-18T12:17:24;21.40;72.90
63094;DHT22;49183;51.380;0.098;2022-08-18T12:20:24;21.80;70.90
63094;DHT22;49183;51.380;0.098;2022-08-18T12:23:25;22.30;69.30
63094;DHT22;49183;51.380;0.098;2022-08-18T12:26:47;22.40;68.70
63094;DHT22;49183;51.380;0.098;2022-08-18T12:30:08;22.70;67.80
63094;DHT22;49183;51.380;0.098;2022-08-18T12:33:11;22.80;66.50
63094;DHT22;49183;51.380;0.098;2022-08-18T12:36:33;22.80;66.20
63094;DHT22;49183;51.380;0.098;2022-08-18T12:39:35;22.80;66.10
63094;DHT22;49183;51.380;0.098;2022-08-18T12:42:36;22.70;65.90
63094;DHT22;49183;51.380;0.098;2022-08-18T12:45:37;22.50;65.30
63094;DHT22;49183;51.380;0.098;2022-08-18T12:48:39;22.40;65.20
63094;DHT22;49183;51.380;0.098;2022-08-18T12:51:33;22.30;65.10
63094;DHT22;49183;51.380;0.098;2022-08-18T12:54:37;22.30;65.10
63094;DHT22;49183;51.380;0.098;2022-08-18T12:57:41;22.30;65.00
63094;DHT22;49183;51.380;0.098;2022-08-18T13:00:44;22.30;65.40
63094;DHT22;49183;51.380;0.098;2022-08-18T13:03:46;22.40;65.10
63094;DHT22;49183;51.380;0.098;2022-08-18T13:07:10;22.50;65.20
63094;DHT22;49183;51.380;0.098;2022-08-18T13:10:11;22.70;64.90
63094;DHT22;49183;51.380;0.098;2022-08-18T13:13:31;22.70;64.90
63094;DHT22;49183;51.380;0.098;2022-08-18T13:16:40;22.60;65.00
63094;DHT22;49183;51.380;0.098;2022-08-18T13:19:41;22.60;65.20
63094;DHT22;49183;51.380;0.098;2022-08-18T13:22:43;22.60;64.60
63094;DHT22;49183;51.380;0.098;2022-08-18T13:25:44;22.60;64.90
63094;DHT22;49183;51.380;0.098;2022-08-18T13:28:48;22.60;65.00
63094;DHT22;49183;51.380;0.098;2022-08-18T13:31:50;22.60;65.00
63094;DHT22;49183;51.380;0.098;2022-08-18T13:34:52;22.50;64.70
63094;DHT22;49183;51.380;0.098;2022-08-18T13:37:58;22.60;64.60
63094;DHT22;49183;51.380;0.098;2022-08-18T13:41:09;22.70;64.30
63094;DHT22;49183;51.380;0.098;2022-08-18T13:44:11;23.00;64.30
63094;DHT22;49183;51.380;0.098;2022-08-18T13:47:12;23.20;63.40
63094;DHT22;49183;51.380;0.098;2022-08-18T13:50:14;23.40;63.60
63094;DHT22;49183;51.380;0.098;2022-08-18T13:53:17;23.40;62.60
63094;DHT22;49183;51.380;0.098;2022-08-18T13:56:18;23.30;62.30
63094;DHT22;49183;51.380;0.098;2022-08-18T13:59:22;23.30;62.60
63094;DHT22;49183;51.380;0.098;2022-08-18T14:02:33;23.30;62.50
63094;DHT22;49183;51.380;0.098;2022-08-18T14:05:34;23.30;62.30
63094;DHT22;49183;51.380;0.098;2022-08-18T14:08:38;23.10;62.60
63094;DHT22;49183;51.380;0.098;2022-08-18T14:11:39;22.90;63.30
63094;DHT22;49183;51.380;0.098;2022-08-18T14:14:40;22.80;63.80
63094;DHT22;49183;51.380;0.098;2022-08-18T14:17:43;22.60;64.40
63094;DHT22;49183;51.380;0.098;2022-08-18T14:20:44;22.70;64.40
63094;DHT22;49183;51.380;0.098;2022-08-18T14:24:08;22.80;63.90
63094;DHT22;49183;51.380;0.098;2022-08-18T14:27:36;23.00;63.40
63094;DHT22;49183;51.380;0.098;2022-08-18T14:30:42;23.10;63.50
63094;DHT22;49183;51.380;0.098;2022-08-18T14:33:45;23.20;63.00
63094;DHT22;49183;51.380;0.098;2022-08-18T14:36:50;23.10;63.10
63094;DHT22;49183;51.380;0.098;2022-08-18T14:39:56;23.10;63.30
63094;DHT22;49183;51.380;0.098;2022-08-18T14:42:59;23.10;63.30
63094;DHT22;49183;51.380;0.098;2022-08-18T14:46:04;23.00;63.40
63094;DHT22;49183;51.380;0.098;2022-08-18T14:49:06;22.90;63.50
63094;DHT22;49183;51.380;0.098;2022-08-18T14:52:16;22.80;63.90
63094;DHT22;49183;51.380;0.098;2022-08-18T14:55:17;22.70;64.60
63094;DHT22;49183;51.380;0.098;2022-08-18T14:58:26;22.60;65.20
63094;DHT22;49183;51.380;0.098;2022-08-18T15:01:27;22.50;65.10
63094;DHT22;49183;51.380;0.098;2022-08-18T15:04:29;22.30;65.70
63094;DHT22;49183;51.380;0.098;2022-08-18T15:07:43;22.30;66.20
63094;DHT22;49183;51.380;0.098;2022-08-18T15:10:44;22.20;66.60
63094;DHT22;49183;51.380;0.098;2022-08-18T15:13:47;22.10;66.40
63094;DHT22;49183;51.380;0.098;2022-08-18T15:16:42;22.00;66.80
63094;DHT22;49183;51.380;0.098;2022-08-18T15:19:42;21.70;68.40
63094;DHT22;49183;51.380;0.098;2022-08-18T15:22:47;21.30;70.40
63094;DHT22;49183;51.380;0.098;2022-08-18T15:26:18;20.80;72.70
63094;DHT22;49183;51.380;0.098;2022-08-18T15:29:16;20.30;75.10
63094;DHT22;49183;51.380;0.098;2022-08-18T15:32:17;19.90;76.50
63094;DHT22;49183;51.380;0.098;2022-08-18T15:35:18;19.80;77.60
63094;DHT22;49183;51.380;0.098;2022-08-18T15:38:21;19.80;78.20
63094;DHT22;49183;51.380;0.098;2022-08-18T15:41:31;20.10;78.60
63094;DHT22;49183;51.380;0.098;2022-08-18T15:44:34;20.20;78.90
63094;DHT22;49183;51.380;0.098;2022-08-18T15:47:39;20.10;79.30
63094;DHT22;49183;51.380;0.098;2022-08-18T15:50:44;20.10;79.40
63094;DHT22;49183;51.380;0.098;2022-08-18T15:53:58;20.10;79.40
63094;DHT22;49183;51.380;0.098;2022-08-18T15:56:59;20.30;79.10
63094;DHT22;49183;51.380;0.098;2022-08-18T16:00:21;20.40;78.40
63094;DHT22;49183;51.380;0.098;2022-08-18T16:03:23;20.60;78.10
63094;DHT22;49183;51.380;0.098;2022-08-18T16:06:25;20.70;77.80
63094;DHT22;49183;51.380;0.098;2022-08-18T16:09:28;20.70;77.40
63094;DHT22;49183;51.380;0.098;2022-08-18T16:12:30;20.60;77.30
63094;DHT22;49183;51.380;0.098;2022-08-18T16:15:38;20.50;77.00
63094;DHT22;49183;51.380;0.098;2022-08-18T16:18:41;20.40;76.90
63094;DHT22;49183;51.380;0.098;2022-08-18T16:21:43;20.30;76.80
63094;DHT22;49183;51.380;0.098;2022-08-18T16:24:44;20.20;77.00
63094;DHT22;49183;51.380;0.098;2022-08-18T16:27:45;20.10;77.40
63094;DHT22;49183;51.380;0.098;2022-08-18T16:30:47;20.10;77.60
63094;DHT22;49183;51.380;0.098;2022-08-18T16:33:48;20.00;77.80
63094;DHT22;49183;51.380;0.098;2022-08-18T16:36:49;19.90;78.20
63094;DHT22;49183;51.380;0.098;2022-08-18T16:39:50;19.80;78.60
63094;DHT22;49183;51.380;0.098;2022-08-18T16:42:53;19.80;78.80
63094;DHT22;49183;51.380;0.098;2022-08-18T16:45:54;19.70;78.90
63094;DHT22;49183;51.380;0.098;2022-08-18T16:48:57;19.70;79.00
63094;DHT22;49183;51.380;0.098;2022-08-18T16:52:01;19.70;79.00
63094;DHT22;49183;51.380;0.098;2022-08-18T16:55:13;19.80;79.00
63094;DHT22;49183;51.380;0.098;2022-08-18T16:58:18;19.70;78.90
63094;DHT22;49183;51.380;0.098;2022-08-18T17:01:41;19.80;78.90
63094;DHT22;49183;51.380;0.098;2022-08-18T17:05:05;19.80;78.70
63094;DHT22;49183;51.380;0.098;2022-08-18T17:08:09;19.80;78.60
63094;DHT22;49183;51.380;0.098;2022-08-18T17:11:17;19.80;78.60
63094;DHT22;49183;51.380;0.098;2022-08-18T17:14:34;19.80;78.40
63094;DHT22;49183;51.380;0.098;2022-08-18T17:17:50;19.80;78.40
63094;DHT22;49183;51.380;0.098;2022-08-18T17:21:06;19.80;78.60
63094;DHT22;49183;51.380;0.098;2022-08-18T17:24:08;19.70;78.60
63094;DHT22;49183;51.380;0.098;2022-08-18T17:31:00;19.70;78.90
63094;DHT22;49183;51.380;0.098;2022-08-18T17:34:07;19.60;79.20
63094;DHT22;49183;51.380;0.098;2022-08-18T17:37:14;19.60;79.30
63094;DHT22;49183;51.380;0.098;2022-08-18T17:40:35;19.60;79.60
63094;DHT22;49183;51.380;0.098;2022-08-18T17:43:39;19.50;80.10
63094;DHT22;49183;51.380;0.098;2022-08-18T17:46:40;19.40;80.60
63094;DHT22;49183;51.380;0.098;2022-08-18T17:49:44;19.30;80.70
63094;DHT22;49183;51.380;0.098;2022-08-18T17:53:20;19.10;81.00
63094;DHT22;49183;51.380;0.098;2022-08-18T17:56:50;19.10;81.20
63094;DHT22;49183;51.380;0.098;2022-08-18T18:00:03;19.00;81.50
63094;DHT22;49183;51.380;0.098;2022-08-18T18:03:06;19.00;81.80
63094;DHT22;49183;51.380;0.098;2022-08-18T18:12:25;18.80;82.10
63094;DHT22;49183;51.380;0.098;2022-08-18T18:15:31;18.80;82.20
63094;DHT22;49183;51.380;0.098;2022-08-18T18:18:38;18.80;82.30
63094;DHT22;49183;51.380;0.098;2022-08-18T18:21:39;18.80;82.70
63094;DHT22;49183;51.380;0.098;2022-08-18T18:24:54;18.80;83.00
63094;DHT22;49183;51.380;0.098;2022-08-18T18:27:59;18.70;83.10
63094;DHT22;49183;51.380;0.098;2022-08-18T18:31:18;18.70;83.10
63094;DHT22;49183;51.380;0.098;2022-08-18T18:37:42;18.70;83.10
63094;DHT22;49183;51.380;0.098;2022-08-18T18:41:05;18.80;83.20
63094;DHT22;49183;51.380;0.098;2022-08-18T18:44:26;18.70;83.40
63094;DHT22;49183;51.380;0.098;2022-08-18T18:47:34;18.70;83.60
63094;DHT22;49183;51.380;0.098;2022-08-18T18:50:56;18.70;83.70
63094;DHT22;49183;51.380;0.098;2022-08-18T18:57:19;18.70;84.10
63094;DHT22;49183;51.380;0.098;2022-08-18T19:00:28;18.60;84.30
63094;DHT22;49183;51.380;0.098;2022-08-18T19:03:48;18.60;84.40
63094;DHT22;49183;51.380;0.098;2022-08-18T19:06:55;18.70;84.50
63094;DHT22;49183;51.380;0.098;2022-08-18T19:10:11;18.70;84.50
63094;DHT22;49183;51.380;0.098;2022-08-18T19:13:24;18.70;84.50
63094;DHT22;49183;51.380;0.098;2022-08-18T19:16:35;18.70;84.70
63094;DHT22;49183;51.380;0.098;2022-08-18T19:25:56;18.70;84.80
63094;DHT22;49183;51.380;0.098;2022-08-18T19:29:09;18.70;84.90
63094;DHT22;49183;51.380;0.098;2022-08-18T19:32:18;18.70;85.10
63094;DHT22;49183;51.380;0.098;2022-08-18T19:35:50;18.70;85.20
63094;DHT22;49183;51.380;0.098;2022-08-18T19:43:15;18.60;85.60
63094;DHT22;49183;51.380;0.098;2022-08-18T19:46:33;18.40;86.20
63094;DHT22;49183;51.380;0.098;2022-08-18T20:00:25;18.00;88.10
63094;DHT22;49183;51.380;0.098;2022-08-18T20:10:51;17.90;89.00
63094;DHT22;49183;51.380;0.098;2022-08-18T20:13:54;17.90;89.10
63094;DHT22;49183;51.380;0.098;2022-08-18T20:20:15;17.90;89.80
63094;DHT22;49183;51.380;0.098;2022-08-18T20:23:33;17.90;89.70
63094;DHT22;49183;51.380;0.098;2022-08-18T20:32:36;17.90;89.80
63094;DHT22;49183;51.380;0.098;2022-08-18T20:41:46;17.80;90.10
63094;DHT22;49183;51.380;0.098;2022-08-18T20:45:11;17.80;90.20
63094;DHT22;49183;51.380;0.098;2022-08-18T20:51:13;17.80;90.30
63094;DHT22;49183;51.380;0.098;2022-08-18T20:57:44;17.70;90.80
63094;DHT22;49183;51.380;0.098;2022-08-18T21:00:54;17.60;90.90
63094;DHT22;49183;51.380;0.098;2022-08-18T21:03:55;17.60;91.30
63094;DHT22;49183;51.380;0.098;2022-08-18T21:06:57;17.60;91.30
63094;DHT22;49183;51.380;0.098;2022-08-18T21:10:16;17.60;91.40
63094;DHT22;49183;51.380;0.098;2022-08-18T21:13:33;17.50;91.50
63094;DHT22;49183;51.380;0.098;2022-08-18T21:16:42;17.60;91.70
63094;DHT22;49183;51.380;0.098;2022-08-18T21:19:44;17.50;91.80
63094;DHT22;49183;51.380;0.098;2022-08-18T21:22:45;17.50;91.80
63094;DHT22;49183;51.380;0.098;2022-08-18T21:26:11;17.50;91.90
63094;DHT22;49183;51.380;0.098;2022-08-18T21:29:13;17.50;92.00
63094;DHT22;49183;51.380;0.098;2022-08-18T21:32:36;17.50;92.00
63094;DHT22;49183;51.380;0.098;2022-08-18T21:35:41;17.50;92.00
63094;DHT22;49183;51.380;0.098;2022-08-18T21:38:52;17.60;91.90
63094;DHT22;49183;51.380;0.098;2022-08-18T21:41:55;17.60;91.90
63094;DHT22;49183;51.380;0.098;2022-08-18T21:44:58;17.60;91.80
63094;DHT22;49183;51.380;0.098;2022-08-18T21:48:03;17.70;91.80
63094;DHT22;49183;51.380;0.098;2022-08-18T21:51:06;17.70;91.70
63094;DHT22;49183;51.380;0.098;2022-08-18T21:54:07;17.70;91.80
63094;DHT22;49183;51.380;0.098;2022-08-18T21:57:26;17.70;91.80
63094;DHT22;49183;51.380;0.098;2022-08-18T22:00:36;17.70;91.70
63094;DHT22;49183;51.380;0.098;2022-08-18T22:03:53;17.80;91.70
63094;DHT22;49183;51.380;0.098;2022-08-18T22:06:57;17.80;91.70
63094;DHT22;49183;51.380;0.098;2022-08-18T22:10:28;17.80;91.60
63094;DHT22;49183;51.380;0.098;2022-08-18T22:13:50;17.80;91.50
63094;DHT22;49183;51.380;0.098;2022-08-18T22:17:27;17.80;91.50
63094;DHT22;49183;51.380;0.098;2022-08-18T22:20:40;17.80;91.50
63094;DHT22;49183;51.380;0.098;2022-08-18T22:23:44;17.80;91.40
63094;DHT22;49183;51.380;0.098;2022-08-18T22:27:08;17.80;91.30
63094;DHT22;49183;51.380;0.098;2022-08-18T22:30:10;17.80;91.30
63094;DHT22;49183;51.380;0.098;2022-08-18T22:33:11;17.80;91.20
63094;DHT22;49183;51.380;0.098;2022-08-18T22:36:21;17.80;91.20
63094;DHT22;49183;51.380;0.098;2022-08-18T22:39:39;17.80;91.10
63094;DHT22;49183;51.380;0.098;2022-08-18T22:42:41;17.80;91.10
63094;DHT22;49183;51.380;0.098;2022-08-18T22:45:42;17.80;91.00